Time;durP1;ratioP1;P1;durP2;ratioP2;P2;SDS_P1;SDS_P2;PMS_P1;PMS_P2;Temp;Humidity;BMP_temperature;BMP_pressure;BME280_temperature;BME280_humidity;BME280_pressure;Samples;Min_cycle;Max_cycle;Signal;HPM_P1;HPM_P2
2021/08/12 00:00:19;;;;;;;;;9.00;7.75;;;;;20.31;59.87;101147.97;5014559;28;45396;-60
2021/08/12 00:02:44;;;;;;;;;10.25;9.75;;;;;20.27;60.12;101149.34;5008636;28;45403;-60
2021/08/12 00:05:10;;;;;;;;;8.00;8.00;;;;;20.24;60.10;101149.72;5006469;28;64902;-60
2021/08/12 00:07:35;;;;;;;;;9.00;8.00;;;;;20.21;59.90;101147.41;5014531;28;50054;-61
2021/08/12 00:10:01;;;;;;;;;9.50;7.00;;;;;20.20;59.60;101151.09;5015422;28;72203;-60
2021/08/12 00:12:27;;;;;;;;;9.00;9.00;;;;;20.15;60.43;101149.00;5015833;28;45238;-60
2021/08/12 00:14:52;;;;;;;;;9.00;9.00;;;;;20.12;60.31;101148.56;5018137;28;45485;-61
2021/08/12 00:17:17;;;;;;;;;9.00;8.00;;;;;20.11;60.41;101153.03;5017050;28;55227;-60
2021/08/12 00:19:43;;;;;;;;;12.50;9.50;;;;;20.09;60.22;101147.06;5015690;28;70264;-60
2021/08/12 00:22:08;;;;;;;;;10.25;9.25;;;;;20.06;60.44;101144.75;5017722;28;45672;-60
2021/08/12 00:24:33;;;;;;;;;10.00;8.00;;;;;20.07;60.62;101140.28;5016791;28;66114;-60
2021/08/12 00:27:02;;;;;;;;;8.75;8.00;;;;;20.07;60.45;101135.75;5016834;28;70672;-60
2021/08/12 00:29:27;;;;;;;;;9.75;8.00;;;;;20.08;60.29;101125.91;5017642;28;45728;-60
2021/08/12 00:31:52;;;;;;;;;11.50;9.00;;;;;20.06;60.80;101125.28;5017418;28;45353;-60
2021/08/12 00:34:18;;;;;;;;;8.50;8.50;;;;;20.05;60.55;101131.63;5017072;28;62682;-61
2021/08/12 00:36:43;;;;;;;;;9.00;7.25;;;;;20.02;60.94;101120.31;5015579;28;48322;-60
2021/08/12 00:39:09;;;;;;;;;8.25;7.00;;;;;20.02;60.33;101128.31;5016961;28;64751;-60
2021/08/12 00:41:37;;;;;;;;;7.25;7.00;;;;;19.99;60.49;101123.34;5016405;28;69252;-61
2021/08/12 00:44:02;;;;;;;;;8.00;7.00;;;;;19.98;60.46;101123.50;5014092;28;45499;-60
2021/08/12 00:46:28;;;;;;;;;8.75;8.75;;;;;19.95;60.99;101122.06;5017165;28;45478;-60
2021/08/12 00:48:53;;;;;;;;;7.25;7.25;;;;;19.93;60.60;101117.91;5016384;28;73225;-60
2021/08/12 00:51:18;;;;;;;;;11.50;10.00;;;;;19.93;60.57;101115.22;5016737;28;61833;-61
2021/08/12 00:53:44;;;;;;;;;11.75;8.50;;;;;19.92;60.77;101114.41;5016042;28;65388;-60
2021/08/12 00:56:09;;;;;;;;;9.00;7.00;;;;;19.92;60.79;101119.75;5014908;28;74554;-61
2021/08/12 00:58:35;;;;;;;;;7.00;7.00;;;;;19.93;60.83;101115.22;5016433;28;68199;-60
2021/08/12 01:01:00;;;;;;;;;7.25;6.00;;;;;19.91;61.06;101115.44;5017258;28;45403;-60
2021/08/12 01:03:25;;;;;;;;;6.00;6.00;;;;;19.91;60.73;101109.25;5014805;28;64491;-60
2021/08/12 01:05:55;;;;;;;;;7.75;5.75;;;;;19.90;61.08;101112.94;5014288;28;70896;-60
2021/08/12 01:08:40;;;;;;;;;7.75;6.75;;;;;19.88;61.16;101115.75;5017051;28;45423;-60
2021/08/12 01:11:20;;;;;;;;;10.50;9.00;;;;;19.86;60.96;101110.63;5015487;28;45384;-60
2021/08/12 01:14:02;;;;;;;;;8.25;5.25;;;;;19.86;60.91;101104.44;5015545;28;45468;-60
2021/08/12 01:16:29;;;;;;;;;9.00;8.00;;;;;19.86;61.15;101099.13;5016948;28;45503;-60
2021/08/12 01:18:55;;;;;;;;;9.50;8.25;;;;;19.85;61.19;101103.63;4999190;28;48664;-61
2021/08/12 01:21:44;;;;;;;;;7.25;6.00;;;;;19.82;61.07;101104.00;5011327;28;45390;-60
2021/08/12 01:24:11;;;;;;;;;9.00;9.00;;;;;19.80;61.06;101107.84;5015885;28;47425;-60
2021/08/12 01:26:37;;;;;;;;;8.50;8.50;;;;;19.77;61.18;101108.22;4996926;28;45378;-60
2021/08/12 01:29:07;;;;;;;;;6.00;6.00;;;;;19.75;61.11;101115.56;5015914;28;51610;-60
2021/08/12 01:31:39;;;;;;;;;7.25;7.25;;;;;19.73;61.25;101113.91;5016821;28;45325;-60
2021/08/12 01:34:10;;;;;;;;;6.50;5.75;;;;;19.73;61.36;101116.56;5016719;28;45520;-61
2021/08/12 01:36:36;;;;;;;;;6.25;6.25;;;;;19.71;61.15;101115.13;5016470;28;45356;-60
2021/08/12 01:39:06;;;;;;;;;8.00;7.00;;;;;19.71;61.43;101115.13;5015515;28;45293;-60
2021/08/12 01:41:31;;;;;;;;;5.00;5.00;;;;;19.71;61.35;101120.44;5015071;28;47117;-61
2021/08/12 01:43:57;;;;;;;;;6.00;5.50;;;;;19.68;61.69;101112.81;5014686;28;65174;-60
2021/08/12 01:46:25;;;;;;;;;5.00;5.00;;;;;19.65;61.51;101114.00;5015004;28;56948;-61
2021/08/12 01:48:51;;;;;;;;;8.25;5.25;;;;;19.66;61.91;101117.50;4998044;28;65992;-61
2021/08/12 01:51:16;;;;;;;;;7.25;6.00;;;;;19.64;61.69;101112.34;5015110;28;45313;-61
2021/08/12 01:53:42;;;;;;;;;8.75;6.75;;;;;19.63;61.86;101112.53;5014054;28;67535;-60
2021/08/12 01:56:07;;;;;;;;;6.50;6.50;;;;;19.60;61.61;101116.41;5014025;28;70108;-61
2021/08/12 01:58:32;;;;;;;;;5.75;5.75;;;;;19.59;62.08;101114.75;4998603;28;45416;-61
2021/08/12 02:00:58;;;;;;;;;8.25;5.75;;;;;19.56;61.60;101115.91;5015193;28;45540;-61
2021/08/12 02:03:24;;;;;;;;;7.00;7.00;;;;;19.53;61.81;101113.63;5015399;28;45538;-60
2021/08/12 02:05:49;;;;;;;;;5.00;5.00;;;;;19.52;61.99;101109.28;5014701;28;51652;-60
2021/08/12 02:08:18;;;;;;;;;7.75;7.50;;;;;19.51;61.32;101106.81;5015218;28;45517;-60
2021/08/12 02:10:43;;;;;;;;;5.00;5.00;;;;;19.50;61.87;101111.31;5011653;28;45466;-60
2021/08/12 02:13:10;;;;;;;;;6.00;5.25;;;;;19.50;61.68;101113.16;5015056;28;69012;-60
2021/08/12 02:15:35;;;;;;;;;7.25;6.00;;;;;19.48;61.96;101113.31;5016206;28;45683;-59
2021/08/12 02:18:01;;;;;;;;;7.50;6.00;;;;;19.47;61.82;101109.00;5015788;28;46964;-60
2021/08/12 02:20:26;;;;;;;;;6.75;6.25;;;;;19.43;62.10;101113.88;5015145;28;69585;-60
2021/08/12 02:22:59;;;;;;;;;8.00;7.00;;;;;19.39;62.14;101117.06;5014972;28;63544;-60
2021/08/12 02:25:50;;;;;;;;;9.25;6.00;;;;;19.36;62.47;101118.28;5015182;28;46400;-60
2021/08/12 02:28:15;;;;;;;;;7.75;5.25;;;;;19.32;62.48;101111.66;5016061;28;45459;-59
2021/08/12 02:30:41;;;;;;;;;9.50;7.75;;;;;19.32;62.39;101110.81;4998166;28;45402;-60
2021/08/12 02:33:08;;;;;;;;;6.50;6.50;;;;;19.32;62.59;101114.31;5013932;28;48665;-61
2021/08/12 02:35:35;;;;;;;;;11.00;7.25;;;;;19.30;62.32;101108.31;5015625;28;45923;-60
2021/08/12 02:38:01;;;;;;;;;7.50;6.00;;;;;19.32;62.55;101110.81;5014180;28;50865;-60
2021/08/12 02:40:26;;;;;;;;;8.50;7.50;;;;;19.31;62.79;101104.66;4997357;28;64096;-60
2021/08/12 02:42:52;;;;;;;;;7.00;6.00;;;;;19.31;62.36;101104.66;5014290;28;45496;-60
2021/08/12 02:45:17;;;;;;;;;8.25;7.00;;;;;19.30;62.84;101111.00;5013037;28;72972;-60
2021/08/12 02:47:42;;;;;;;;;10.25;8.00;;;;;19.27;62.49;101108.69;5014534;28;69544;-60
2021/08/12 02:50:09;;;;;;;;;10.50;9.00;;;;;19.23;63.16;101115.38;5014121;28;45591;-61
2021/08/12 02:52:34;;;;;;;;;8.50;7.25;;;;;19.18;63.36;101110.59;5014191;28;45365;-60
2021/08/12 02:55:00;;;;;;;;;10.25;8.50;;;;;19.17;62.95;101116.09;5015253;28;46005;-60
2021/08/12 02:57:25;;;;;;;;;11.50;9.25;;;;;19.13;63.23;101111.13;5013174;28;69127;-60
2021/08/12 02:59:50;;;;;;;;;10.25;8.25;;;;;19.11;63.54;101109.66;5013135;28;63146;-60
2021/08/12 03:02:20;;;;;;;;;8.00;8.00;;;;;19.08;63.58;101113.47;5014298;28;69217;-60
2021/08/12 03:04:45;;;;;;;;;7.25;7.25;;;;;19.06;63.68;101118.19;5014078;28;45897;-61
2021/08/12 03:07:12;;;;;;;;;10.75;9.25;;;;;19.05;63.54;101115.69;5014116;28;45441;-60
2021/08/12 03:09:37;;;;;;;;;8.00;8.00;;;;;19.02;63.52;101106.25;4996862;28;45533;-61
2021/08/12 03:12:03;;;;;;;;;9.00;8.00;;;;;19.01;63.82;101109.06;5009853;28;67560;-59
2021/08/12 03:14:30;;;;;;;;;11.25;9.25;;;;;19.00;63.76;101113.56;4997138;28;45876;-61
2021/08/12 03:16:57;;;;;;;;;11.25;8.00;;;;;18.98;63.55;101111.06;5013839;28;45983;-60
2021/08/12 03:19:23;;;;;;;;;8.75;8.00;;;;;19.00;63.82;101105.59;4997523;28;45264;-60
2021/08/12 03:22:07;;;;;;;;;14.00;10.00;;;;;19.01;63.36;101106.41;4996412;28;65499;-60
2021/08/12 03:24:34;;;;;;;;;12.75;9.50;;;;;19.01;63.33;101095.75;5014667;28;50075;-60
2021/08/12 03:27:00;;;;;;;;;10.50;9.00;;;;;19.00;63.34;101094.94;5014986;28;45929;-60
2021/08/12 03:29:25;;;;;;;;;15.75;10.00;;;;;19.00;63.15;101097.59;5015147;28;45299;-60
2021/08/12 03:31:50;;;;;;;;;12.25;10.75;;;;;19.00;63.03;101102.91;5014185;28;65088;-60
2021/08/12 03:34:16;;;;;;;;;14.75;9.50;;;;;18.99;63.18;101095.94;5003411;28;49348;-61
2021/08/12 03:36:41;;;;;;;;;10.50;10.00;;;;;19.00;63.28;101096.75;5014127;28;69635;-59
2021/08/12 03:39:07;;;;;;;;;10.25;10.25;;;;;18.98;63.60;101089.78;5014158;28;68941;-61
2021/08/12 03:41:32;;;;;;;;;8.25;7.25;;;;;18.97;63.46;101092.63;5013630;28;54465;-61
2021/08/12 03:43:57;;;;;;;;;9.75;9.50;;;;;18.97;63.63;101089.97;5016906;28;46117;-59
2021/08/12 03:46:23;;;;;;;;;9.50;9.00;;;;;18.98;63.25;101091.63;5020285;28;71896;-60
2021/08/12 03:48:48;;;;;;;;;11.50;10.25;;;;;18.97;63.49;101095.28;5021903;28;45530;-60
2021/08/12 03:51:14;;;;;;;;;11.75;9.00;;;;;18.98;63.41;101096.94;5020323;28;64959;-59
2021/08/12 03:53:39;;;;;;;;;10.00;10.00;;;;;18.97;63.20;101096.09;5019933;28;75538;-60
2021/08/12 03:56:04;;;;;;;;;11.00;9.50;;;;;18.96;63.55;101101.63;5020185;28;70760;-59
2021/08/12 03:58:32;;;;;;;;;12.50;10.50;;;;;18.96;63.28;101106.94;5036114;28;63460;-60
2021/08/12 04:00:57;;;;;;;;;10.75;10.75;;;;;18.95;63.25;101097.25;5018909;28;45611;-61
2021/08/12 04:03:23;;;;;;;;;10.25;10.25;;;;;18.92;63.57;101102.94;5019804;28;73284;-59
2021/08/12 04:05:48;;;;;;;;;11.75;10.00;;;;;18.91;63.46;101104.75;5021234;28;45433;-61
2021/08/12 04:08:14;;;;;;;;;13.00;11.00;;;;;18.91;63.71;101094.13;5021172;28;45328;-60
2021/08/12 04:10:40;;;;;;;;;13.00;11.50;;;;;18.93;63.78;101091.28;5021119;28;45657;-60
2021/08/12 04:13:06;;;;;;;;;14.00;11.50;;;;;18.92;63.46;101089.63;5020768;28;45414;-60
2021/08/12 04:15:31;;;;;;;;;11.25;9.00;;;;;18.90;63.50;101097.78;5020015;28;71647;-61
2021/08/12 04:17:56;;;;;;;;;11.25;9.75;;;;;18.90;63.54;101096.97;5020283;28;61020;-61
2021/08/12 04:20:22;;;;;;;;;12.25;10.00;;;;;18.86;63.80;101099.13;5020080;28;66871;-60
2021/08/12 04:22:47;;;;;;;;;16.75;11.75;;;;;18.85;63.78;101094.81;5019872;28;68711;-60
2021/08/12 04:25:12;;;;;;;;;14.50;12.00;;;;;18.83;63.66;101092.34;5020790;28;45454;-59
2021/08/12 04:27:38;;;;;;;;;10.50;10.00;;;;;18.83;63.69;101088.84;5021118;28;45968;-60
2021/08/12 04:30:05;;;;;;;;;11.25;10.50;;;;;18.82;63.77;101085.38;5020911;28;46246;-61
2021/08/12 04:32:31;;;;;;;;;10.75;9.75;;;;;18.81;63.95;101089.03;5020296;28;46408;-61
2021/08/12 04:34:56;;;;;;;;;12.25;9.75;;;;;18.81;63.96;101081.03;5013841;28;66454;-60
2021/08/12 04:37:22;;;;;;;;;11.00;10.00;;;;;18.81;64.05;101085.56;5005034;28;57250;-61
2021/08/12 04:39:47;;;;;;;;;11.00;10.00;;;;;18.79;64.08;101082.25;5021232;28;45432;-60
2021/08/12 04:42:12;;;;;;;;;11.00;11.00;;;;;18.76;64.13;101077.28;5020643;28;46182;-61
2021/08/12 04:44:38;;;;;;;;;11.50;10.75;;;;;18.74;64.30;101082.75;5020520;28;45546;-60
2021/08/12 04:47:03;;;;;;;;;12.00;9.75;;;;;18.72;64.35;101084.75;5020757;28;45417;-60
2021/08/12 04:49:29;;;;;;;;;13.75;10.50;;;;;18.67;64.52;101082.66;5020502;28;45435;-61
2021/08/12 04:51:54;;;;;;;;;10.50;10.50;;;;;18.66;64.51;101074.81;5020444;28;45225;-61
2021/08/12 04:54:20;;;;;;;;;10.25;9.00;;;;;18.62;64.81;101074.34;5019786;28;67742;-61
2021/08/12 04:56:45;;;;;;;;;10.00;8.25;;;;;18.60;64.77;101080.84;5016270;28;45358;-60
2021/08/12 04:59:10;;;;;;;;;10.50;8.75;;;;;18.59;64.89;101082.69;5016143;28;69755;-61
2021/08/12 05:01:36;;;;;;;;;12.50;12.50;;;;;18.61;65.14;101080.69;5016503;28;68192;-60
2021/08/12 05:04:01;;;;;;;;;10.00;9.00;;;;;18.63;64.90;101075.16;5016216;28;68163;-60
2021/08/12 05:06:26;;;;;;;;;12.25;9.75;;;;;18.64;64.85;101077.66;5016231;28;64847;-60
2021/08/12 05:08:52;;;;;;;;;9.50;9.50;;;;;18.64;64.91;101087.47;5017167;28;45510;-60
2021/08/12 05:11:17;;;;;;;;;10.75;9.25;;;;;18.64;64.86;101076.81;5016350;28;63291;-61
2021/08/12 05:13:42;;;;;;;;;9.00;8.75;;;;;18.65;64.83;101078.50;5015793;28;67290;-61
2021/08/12 05:16:08;;;;;;;;;9.75;8.50;;;;;18.66;64.80;101078.31;5016281;28;64142;-60
2021/08/12 05:18:33;;;;;;;;;10.00;8.50;;;;;18.65;65.25;101073.16;5016080;28;66077;-60
2021/08/12 05:20:59;;;;;;;;;14.50;8.00;;;;;18.65;64.98;101075.81;5014436;28;47447;-61
2021/08/12 05:23:24;;;;;;;;;12.50;9.75;;;;;18.66;65.27;101072.16;5016474;28;45462;-59
2021/08/12 05:25:49;;;;;;;;;13.50;11.00;;;;;18.68;65.25;101070.16;5017058;28;45546;-60
2021/08/12 05:28:15;;;;;;;;;11.00;9.75;;;;;18.70;65.32;101073.47;5015883;28;69690;-61
2021/08/12 05:30:40;;;;;;;;;12.50;10.25;;;;;18.73;65.50;101065.13;5016173;28;64448;-61
2021/08/12 05:33:06;;;;;;;;;11.75;11.00;;;;;18.75;64.89;101071.09;5015938;28;62448;-60
2021/08/12 05:35:31;;;;;;;;;11.50;10.75;;;;;18.77;65.29;101077.09;5016864;28;45447;-59
2021/08/12 05:37:56;;;;;;;;;14.50;14.25;;;;;18.81;64.68;101083.72;5015996;28;60747;-61
2021/08/12 05:40:22;;;;;;;;;14.75;12.25;;;;;18.83;64.82;101087.03;5015847;28;66012;-61
2021/08/12 05:42:47;;;;;;;;;9.75;9.25;;;;;18.84;64.95;101087.84;5016173;28;57629;-60
2021/08/12 05:45:12;;;;;;;;;14.75;13.25;;;;;18.88;64.96;101091.00;5015821;28;61966;-61
2021/08/12 05:47:38;;;;;;;;;13.25;10.00;;;;;18.93;65.06;101093.94;5016064;28;61545;-60
2021/08/12 05:50:04;;;;;;;;;12.00;9.25;;;;;18.96;64.76;101101.63;5016782;28;45276;-61
2021/08/12 05:52:29;;;;;;;;;13.75;10.50;;;;;19.00;64.98;101100.25;5016348;28;45369;-60
2021/08/12 05:54:55;;;;;;;;;14.50;11.25;;;;;19.05;64.94;101105.03;5016307;28;45748;-60
2021/08/12 05:57:20;;;;;;;;;11.50;9.75;;;;;19.08;64.66;101100.16;5015638;28;69313;-60
2021/08/12 05:59:45;;;;;;;;;14.25;14.25;;;;;19.15;64.52;101094.97;5015057;28;68314;-60
2021/08/12 06:02:11;;;;;;;;;11.00;10.00;;;;;19.19;64.57;101087.44;5015963;28;45300;-61
2021/08/12 06:04:37;;;;;;;;;11.00;11.00;;;;;19.20;64.44;101086.44;5016450;28;45807;-60
2021/08/12 06:07:02;;;;;;;;;13.00;11.25;;;;;19.21;64.35;101088.94;5015561;28;48758;-61
2021/08/12 06:09:28;;;;;;;;;14.75;11.25;;;;;19.24;63.98;101096.56;5015394;28;45609;-61
2021/08/12 06:11:53;;;;;;;;;13.25;11.00;;;;;19.28;64.19;101095.19;5015751;28;45293;-60
2021/08/12 06:14:18;;;;;;;;;13.25;11.75;;;;;19.31;63.74;101099.31;5015052;28;64210;-60
2021/08/12 06:16:44;;;;;;;;;16.00;12.00;;;;;19.36;63.78;101088.97;5014799;28;68422;-59
2021/08/12 06:19:09;;;;;;;;;12.50;11.00;;;;;19.41;63.90;101093.72;5015632;28;46231;-60
2021/08/12 06:21:34;;;;;;;;;11.25;9.25;;;;;19.45;63.68;101100.34;5015214;28;59461;-60
2021/08/12 06:24:00;;;;;;;;;14.50;12.50;;;;;19.50;63.40;101099.84;5012533;28;45823;-61
2021/08/12 06:26:25;;;;;;;;;15.75;11.75;;;;;19.58;63.56;101100.56;5014812;28;68873;-60
2021/08/12 06:28:51;;;;;;;;;19.50;15.75;;;;;19.65;62.94;101103.31;5015681;28;46146;-61
2021/08/12 06:31:16;;;;;;;;;15.25;13.75;;;;;19.70;62.90;101100.94;5015799;28;45372;-61
2021/08/12 06:33:42;;;;;;;;;12.75;11.25;;;;;19.79;62.75;101106.19;5014202;28;45274;-61
2021/08/12 06:36:07;;;;;;;;;13.50;12.50;;;;;19.86;62.77;101101.78;5015309;28;63985;-60
2021/08/12 06:38:33;;;;;;;;;13.00;11.75;;;;;19.95;62.66;101100.72;5015488;28;46030;-60
2021/08/12 06:40:59;;;;;;;;;12.25;11.00;;;;;20.03;62.29;101102.44;5015595;28;45502;-59
2021/08/12 06:43:24;;;;;;;;;13.00;11.75;;;;;20.08;62.32;101104.56;5015495;28;45431;-60
2021/08/12 06:45:49;;;;;;;;;13.00;12.00;;;;;20.16;61.98;101107.13;5013540;28;58957;-61
2021/08/12 06:48:15;;;;;;;;;11.75;11.00;;;;;20.27;62.20;101109.31;5015381;28;46479;-61
2021/08/12 06:50:40;;;;;;;;;11.50;10.75;;;;;20.39;62.08;101112.34;5014900;28;65535;-60
2021/08/12 06:53:06;;;;;;;;;13.75;11.00;;;;;20.55;61.57;101113.13;5015354;28;45360;-61
2021/08/12 06:55:31;;;;;;;;;11.75;10.75;;;;;20.70;61.53;101105.91;5014685;28;66867;-61
2021/08/12 06:57:58;;;;;;;;;11.00;8.75;;;;;20.86;61.03;101102.19;5015469;28;45442;-60
2021/08/12 07:00:23;;;;;;;;;12.25;10.00;;;;;21.02;60.75;101101.09;5015424;28;45971;-61
2021/08/12 07:02:48;;;;;;;;;9.00;9.00;;;;;21.19;60.23;101100.84;5015031;28;45764;-60
2021/08/12 07:05:14;;;;;;;;;12.00;10.00;;;;;21.36;59.92;101104.06;5015311;28;46218;-61
2021/08/12 07:07:39;;;;;;;;;12.00;12.00;;;;;21.53;60.17;101109.94;5015066;28;45371;-61
2021/08/12 07:10:05;;;;;;;;;13.00;10.50;;;;;21.70;59.89;101107.84;5015105;28;45769;-60
2021/08/12 07:12:30;;;;;;;;;11.00;10.00;;;;;21.86;58.88;101104.03;5014820;28;45470;-61
2021/08/12 07:14:55;;;;;;;;;8.75;8.00;;;;;21.99;58.95;101105.94;5014342;28;70363;-60
2021/08/12 07:17:21;;;;;;;;;9.75;9.00;;;;;22.13;57.93;101097.97;5013803;28;75567;-61
2021/08/12 07:19:47;;;;;;;;;12.50;9.00;;;;;22.21;58.09;101085.25;5014177;28;45178;-61
2021/08/12 07:22:12;;;;;;;;;11.00;8.25;;;;;22.31;57.64;101090.19;5014716;28;45408;-60
2021/08/12 07:24:37;;;;;;;;;10.00;8.00;;;;;22.37;57.18;101096.63;5014611;28;60765;-60
2021/08/12 07:27:03;;;;;;;;;11.00;8.50;;;;;22.45;57.79;101087.59;5015109;28;45349;-61
2021/08/12 07:29:28;;;;;;;;;13.75;10.25;;;;;22.57;57.27;101093.19;5014871;28;45257;-61
2021/08/12 07:31:54;;;;;;;;;11.75;11.75;;;;;22.65;57.56;101093.84;5014239;28;59923;-61
2021/08/12 07:34:19;;;;;;;;;9.50;9.50;;;;;22.74;56.42;101107.06;5014337;28;61490;-61
2021/08/12 07:36:46;;;;;;;;;11.25;9.25;;;;;22.81;55.97;101107.88;5014397;28;56700;-60
2021/08/12 07:39:12;;;;;;;;;11.50;9.00;;;;;22.87;55.84;101104.38;5014970;28;45372;-59
2021/08/12 07:41:37;;;;;;;;;13.25;11.00;;;;;22.94;56.19;101105.22;5014814;28;45418;-61
2021/08/12 07:44:03;;;;;;;;;13.75;11.50;;;;;23.01;55.67;101099.03;5013768;28;65907;-60
2021/08/12 07:46:28;;;;;;;;;10.00;8.25;;;;;23.03;55.13;101105.84;5012893;28;46187;-61
2021/08/12 07:48:54;;;;;;;;;11.75;9.25;;;;;23.09;55.23;101099.66;5014461;28;45454;-61
2021/08/12 07:51:22;;;;;;;;;11.50;10.00;;;;;23.18;55.02;101099.44;5014641;28;45850;-61
2021/08/12 07:53:48;;;;;;;;;16.50;13.00;;;;;23.32;55.04;101100.28;5013374;28;45503;-62
2021/08/12 07:56:13;;;;;;;;;13.00;11.00;;;;;23.46;54.79;101101.13;5014371;28;45456;-61
2021/08/12 07:58:39;;;;;;;;;10.50;9.75;;;;;23.56;53.79;101096.16;5014598;28;45419;-61
2021/08/12 08:01:04;;;;;;;;;10.00;10.00;;;;;23.64;54.00;101090.56;5014765;28;45447;-60
2021/08/12 08:03:30;;;;;;;;;10.50;10.50;;;;;23.76;53.89;101097.97;5011076;28;45684;-61
2021/08/12 08:05:57;;;;;;;;;9.75;8.25;;;;;23.86;53.41;101098.34;5014444;28;45270;-61
2021/08/12 08:08:22;;;;;;;;;9.25;8.75;;;;;24.00;53.08;101093.78;5013392;28;45835;-61
2021/08/12 08:10:48;;;;;;;;;12.25;11.50;;;;;24.12;52.59;101097.47;5013746;28;64856;-61
2021/08/12 08:13:13;;;;;;;;;11.25;11.00;;;;;24.25;52.52;101091.22;5012057;28;67084;-61
2021/08/12 08:15:38;;;;;;;;;10.00;9.25;;;;;24.37;52.31;101091.38;5013427;28;69294;-61
2021/08/12 08:18:04;;;;;;;;;10.00;8.75;;;;;24.49;51.97;101082.63;5014100;28;55671;-61
2021/08/12 08:20:29;;;;;;;;;9.25;9.00;;;;;24.58;51.98;101089.38;5014565;28;45471;-61
2021/08/12 08:22:55;;;;;;;;;10.00;9.50;;;;;24.67;51.75;101084.56;5014217;28;45694;-60
2021/08/12 08:25:20;;;;;;;;;9.00;7.75;;;;;24.77;52.03;101081.44;5013777;28;52420;-61
2021/08/12 08:27:45;;;;;;;;;8.25;7.75;;;;;24.83;51.77;101076.00;5013482;28;71548;-61
2021/08/12 08:30:11;;;;;;;;;9.75;9.00;;;;;24.94;51.42;101081.72;5014921;28;68189;-61
2021/08/12 08:32:37;;;;;;;;;9.75;9.75;;;;;25.02;51.34;101084.16;5017917;28;45469;-61
2021/08/12 08:35:03;;;;;;;;;8.00;7.75;;;;;25.11;51.17;101090.06;5017026;28;68903;-61
2021/08/12 08:37:28;;;;;;;;;9.75;9.75;;;;;25.19;51.27;101089.78;5017738;28;45304;-62
2021/08/12 08:39:54;;;;;;;;;8.50;7.50;;;;;25.27;50.59;101088.69;5017722;28;45259;-61
2021/08/12 08:42:20;;;;;;;;;8.00;7.25;;;;;25.31;50.40;101090.72;5017363;28;45419;-61
2021/08/12 08:44:46;;;;;;;;;10.25;8.50;;;;;25.40;50.17;101083.19;5016061;28;46016;-62
2021/08/12 08:47:12;;;;;;;;;12.00;9.25;;;;;25.48;49.96;101077.56;5017202;28;45269;-62
2021/08/12 08:49:39;;;;;;;;;11.75;9.75;;;;;25.56;49.76;101073.72;5017424;28;45292;-61
2021/08/12 08:52:08;;;;;;;;;11.00;11.00;;;;;25.66;49.83;101077.78;4999429;28;45479;-61
2021/08/12 08:54:33;;;;;;;;;12.75;10.00;;;;;25.73;49.47;101073.97;5016345;28;46189;-61
2021/08/12 08:56:59;;;;;;;;;11.75;9.00;;;;;25.84;49.49;101085.03;5015065;28;65963;-61
2021/08/12 08:59:25;;;;;;;;;11.00;10.00;;;;;25.91;49.33;101083.91;5016073;28;67323;-61
2021/08/12 09:01:50;;;;;;;;;10.50;8.00;;;;;25.98;49.40;101093.75;5017466;28;45482;-61
2021/08/12 09:04:15;;;;;;;;;11.50;11.50;;;;;26.08;49.25;101096.75;5015598;28;71143;-61
2021/08/12 09:06:41;;;;;;;;;12.25;9.75;;;;;26.17;49.31;101094.63;5014888;28;63794;-61
2021/08/12 09:09:06;;;;;;;;;10.75;9.25;;;;;26.25;48.81;101093.47;5016825;28;45532;-61
2021/08/12 09:11:32;;;;;;;;;9.00;8.75;;;;;26.36;48.68;101100.78;5016894;28;45619;-61
2021/08/12 09:13:57;;;;;;;;;9.00;8.75;;;;;26.49;48.64;101107.84;5015705;28;72595;-60
2021/08/12 09:16:33;;;;;;;;;9.25;9.25;;;;;26.64;48.16;101104.75;5016368;28;62156;-61
2021/08/12 09:19:21;;;;;;;;;11.75;9.75;;;;;26.78;47.71;101105.34;5016662;28;45312;-61
2021/08/12 09:21:48;;;;;;;;;10.00;8.50;;;;;26.96;47.62;101107.19;5017105;28;45391;-62
2021/08/12 09:24:13;;;;;;;;;13.75;9.50;;;;;27.09;47.85;101101.56;5016426;28;45187;-60
2021/08/12 09:26:39;;;;;;;;;9.00;8.25;;;;;27.23;47.98;101106.75;5015495;28;49016;-61
2021/08/12 09:29:06;;;;;;;;;9.50;9.00;;;;;27.34;47.38;101107.78;5017109;28;45421;-62
2021/08/12 09:31:31;;;;;;;;;8.50;8.00;;;;;27.45;46.44;101111.56;5017162;28;45564;-61
2021/08/12 09:33:57;;;;;;;;;8.25;7.25;;;;;27.55;46.02;101111.84;5011004;28;74463;-61
2021/08/12 09:36:26;;;;;;;;;8.00;7.50;;;;;27.66;46.71;101105.56;5016697;28;45649;-61
2021/08/12 09:39:08;;;;;;;;;10.50;8.00;;;;;27.76;45.89;101105.00;5016824;28;45466;-62
2021/08/12 09:41:45;;;;;;;;;12.00;9.50;;;;;27.88;46.22;101107.66;5014796;28;45702;-62
2021/08/12 09:44:36;;;;;;;;;8.50;8.50;;;;;27.97;45.30;101106.25;5015919;28;46726;-61
2021/08/12 09:47:06;;;;;;;;;8.00;8.00;;;;;28.08;45.74;101103.75;5015857;28;45970;-61
2021/08/12 09:49:42;;;;;;;;;9.75;8.75;;;;;28.17;45.45;101101.50;5015317;28;46014;-61
2021/08/12 09:52:28;;;;;;;;;12.75;8.50;;;;;28.29;45.31;101105.78;5016244;28;45215;-61
2021/08/12 09:55:01;;;;;;;;;11.75;8.75;;;;;28.42;44.27;101101.97;5014518;28;45391;-61
2021/08/12 09:57:33;;;;;;;;;13.75;8.25;;;;;28.55;44.50;101100.88;5016483;28;45361;-61
2021/08/12 09:59:59;;;;;;;;;8.00;7.00;;;;;28.65;44.55;101099.38;5016299;28;45587;-61
2021/08/12 10:02:24;;;;;;;;;9.50;8.00;;;;;28.77;44.12;101105.56;5016234;28;45473;-61
2021/08/12 10:05:02;;;;;;;;;9.75;9.75;;;;;28.90;43.10;101098.22;4995414;28;70546;-61
2021/08/12 10:07:34;;;;;;;;;9.00;8.00;;;;;28.99;43.00;101097.56;5014100;28;45898;-61
2021/08/12 10:10:13;;;;;;;;;8.75;8.75;;;;;29.13;43.99;101099.94;5014125;28;45477;-62
2021/08/12 10:12:48;;;;;;;;;12.50;9.25;;;;;29.24;43.85;101096.31;5016149;28;45268;-63
2021/08/12 10:15:29;;;;;;;;;9.25;7.00;;;;;29.35;42.96;101091.88;5016054;28;45271;-62
2021/08/12 10:17:56;;;;;;;;;11.25;9.50;;;;;29.50;43.24;101095.88;5013542;28;45567;-62
2021/08/12 10:20:30;;;;;;;;;8.50;8.50;;;;;29.65;42.22;101087.16;5016245;28;45392;-62
2021/08/12 10:22:56;;;;;;;;;8.75;7.75;;;;;29.80;42.34;101087.34;5015767;28;45623;-61
2021/08/12 10:25:22;;;;;;;;;11.25;10.50;;;;;29.93;41.49;101085.34;5015788;28;46299;-61
2021/08/12 10:27:51;;;;;;;;;8.75;6.25;;;;;30.00;41.13;101084.09;5015826;28;45998;-62
2021/08/12 10:30:16;;;;;;;;;8.75;6.75;;;;;30.14;41.70;101086.41;5014782;28;45289;-62
2021/08/12 10:33:01;;;;;;;;;5.75;5.00;;;;;30.29;42.10;101083.84;5014170;28;52040;-62
2021/08/12 10:35:28;;;;;;;;;10.00;7.00;;;;;30.45;40.95;101075.84;5014985;28;47205;-62
2021/08/12 10:37:54;;;;;;;;;8.00;7.50;;;;;30.58;40.82;101083.63;5014977;28;51488;-62
2021/08/12 10:40:30;;;;;;;;;8.00;7.00;;;;;30.69;40.56;101081.00;5014162;28;45365;-62
2021/08/12 10:42:57;;;;;;;;;6.25;5.75;;;;;30.75;40.33;101085.34;5015778;28;45465;-62
2021/08/12 10:45:23;;;;;;;;;7.50;7.50;;;;;30.83;40.26;101089.50;5014636;28;45883;-62
2021/08/12 10:47:54;;;;;;;;;7.00;6.00;;;;;30.88;40.42;101076.78;5015811;28;45962;-62
2021/08/12 10:50:22;;;;;;;;;8.25;6.50;;;;;30.96;39.71;101074.66;5015757;28;45327;-62
2021/08/12 10:53:10;;;;;;;;;6.75;6.25;;;;;31.01;38.96;101083.66;5011329;28;45313;-61
2021/08/12 10:56:08;;;;;;;;;11.75;11.75;;;;;31.07;38.75;101079.91;5015038;28;45429;-62
2021/08/12 10:58:38;;;;;;;;;9.25;9.25;;;;;31.12;38.20;101078.28;5014192;28;45532;-62
2021/08/12 11:01:08;;;;;;;;;10.50;9.50;;;;;31.13;38.18;101078.06;4998156;28;45467;-60
2021/08/12 11:03:33;;;;;;;;;8.50;6.75;;;;;31.18;38.12;101071.84;5015378;28;45478;-62
2021/08/12 11:06:12;;;;;;;;;10.50;7.75;;;;;31.26;37.86;101074.09;5015099;28;45478;-62
2021/08/12 11:09:10;;;;;;;;;14.25;10.00;;;;;31.35;38.11;101079.81;5014102;28;45386;-62
2021/08/12 11:11:34;;;;;;;;;9.00;9.00;;;;;31.40;37.38;101066.28;5014925;28;45325;-61
2021/08/12 11:14:22;;;;;;;;;9.00;9.00;;;;;31.44;37.18;101072.00;5015186;28;45382;-62
2021/08/12 11:16:51;;;;;;;;;9.25;8.00;;;;;31.54;37.28;101072.03;5014455;28;45486;-62
2021/08/12 11:19:26;;;;;;;;;9.75;7.50;;;;;31.61;37.83;101067.19;5015165;28;45443;-62